Time;durP1;ratioP1;P1;durP2;ratioP2;P2;SDS_P1;SDS_P2;PMS_P1;PMS_P2;Temp;Humidity;BMP_temperature;BMP_pressure;BME280_temperature;BME280_humidity;BME280_pressure;Samples;Min_cycle;Max_cycle;Signal;HPM_P1;HPM_P2
2022/05/04 00:01:12;;;;;;;6.87;4.17;;;;;;;10.47;100.00;99146.68;1701912;84;21100;-61
2022/05/04 00:03:39;;;;;;;8.40;4.75;;;;;;;10.53;100.00;99142.53;1688957;83;21042;-61
2022/05/04 00:06:06;;;;;;;9.48;4.50;;;;;;;10.51;100.00;99146.92;1694217;83;21106;-61
2022/05/04 00:08:33;;;;;;;5.65;4.20;;;;;;;10.51;100.00;99145.56;1697422;83;21003;-61
2022/05/04 00:11:00;;;;;;;6.75;4.08;;;;;;;10.52;100.00;99142.30;1681912;84;22284;-61
2022/05/04 00:13:27;;;;;;;;;;;;;;;10.45;100.00;99144.77;1701977;83;21006;-61
2022/05/04 00:15:53;;;;;;;6.27;3.87;;;;;;;10.37;100.00;99152.75;1693817;84;20131;-62
2022/05/04 00:18:20;;;;;;;9.25;3.60;;;;;;;10.37;100.00;99152.75;1699141;84;21097;-62
2022/05/04 00:20:46;;;;;;;8.35;4.05;;;;;;;10.33;100.00;99148.97;1691650;83;21083;-61
2022/05/04 00:23:13;;;;;;;;;;;;;;;10.32;100.00;99151.42;1700765;84;21039;-61
2022/05/04 00:25:39;;;;;;;5.92;3.75;;;;;;;10.29;100.00;99147.91;1698763;83;20147;-61
2022/05/04 00:28:06;;;;;;;9.88;4.25;;;;;;;10.21;100.00;99155.30;1695459;84;21083;-60
2022/05/04 00:30:32;;;;;;;7.37;3.92;;;;;;;10.16;100.00;99165.70;1697960;83;21644;-61
2022/05/04 00:33:00;;;;;;;5.72;3.62;;;;;;;10.18;100.00;99166.22;1749436;81;21050;-61
2022/05/04 00:35:26;;;;;;;8.08;3.90;;;;;;;10.23;100.00;99164.02;1750306;80;21506;-60
2022/05/04 00:37:52;;;;;;;6.58;4.35;;;;;;;10.21;100.00;99164.28;1747093;82;20981;-62
2022/05/04 00:40:19;;;;;;;10.18;4.65;;;;;;;10.14;100.00;99169.23;1741470;81;21058;-62
2022/05/04 00:42:45;;;;;;;6.22;3.98;;;;;;;10.09;100.00;99170.61;1714307;82;21025;-62
2022/05/04 00:45:11;;;;;;;5.15;3.70;;;;;;;10.03;100.00;99170.36;1730302;81;21022;-61
2022/05/04 00:47:38;;;;;;;6.50;4.33;;;;;;;10.00;100.00;99168.20;1750757;82;20943;-61
2022/05/04 00:50:06;;;;;;;7.30;3.87;;;;;;;10.01;100.00;99172.55;1741544;80;21370;-61
2022/05/04 00:52:34;;;;;;;8.25;3.87;;;;;;;9.97;100.00;99176.39;1746758;81;21022;-61
2022/05/04 00:55:01;;;;;;;9.35;4.05;;;;;;;9.95;100.00;99179.13;1751719;80;21527;-61
2022/05/04 01:00:14;;;;;;;8.28;3.85;;;;;;;9.90;100.00;99184.04;1743182;81;21003;-61
2022/05/04 01:02:41;;;;;;;8.03;3.65;;;;;;;9.86;100.00;99178.89;1744224;80;20991;-61
2022/05/04 01:05:11;;;;;;;7.60;3.72;;;;;;;9.86;100.00;99180.80;1747812;81;21032;-61
2022/05/04 01:07:39;;;;;;;6.37;3.37;;;;;;;9.93;100.00;99188.09;1750711;82;21610;-61
2022/05/04 01:10:07;;;;;;;6.95;3.87;;;;;;;9.96;100.00;99183.45;1750750;80;21051;-61
2022/05/04 01:12:35;;;;;;;6.45;3.60;;;;;;;9.92;100.00;99191.36;1742211;81;21020;-62
2022/05/04 01:15:04;;;;;;;7.58;3.75;;;;;;;9.90;100.00;99190.02;1737059;80;21146;-61
2022/05/04 01:17:31;;;;;;;8.03;3.92;;;;;;;9.87;100.00;99191.95;1750690;82;21020;-62
2022/05/04 01:19:57;;;;;;;8.15;3.80;;;;;;;9.82;100.00;99194.13;1744981;80;21066;-62
2022/05/04 01:22:24;;;;;;;7.65;3.90;;;;;;;9.79;100.00;99186.55;1739816;81;21066;-62
2022/05/04 01:24:51;;;;;;;9.70;4.25;;;;;;;9.74;100.00;99188.48;1741061;80;21126;-62
2022/05/04 01:27:17;;;;;;;;;;;;;;;9.69;100.00;99192.58;1743283;81;20989;-61
2022/05/04 01:29:44;;;;;;;7.67;3.95;;;;;;;9.64;100.00;99193.40;1747276;80;20125;-62
2022/05/04 01:32:10;;;;;;;6.53;3.95;;;;;;;9.58;100.00;99185.55;1751096;81;21057;-62
2022/05/04 01:34:36;;;;;;;;;;;;;;;9.56;100.00;99192.64;1741104;80;21061;-62
2022/05/04 01:37:04;;;;;;;7.37;3.40;;;;;;;9.58;100.00;99194.52;1750376;82;20170;-62
2022/05/04 01:39:31;;;;;;;10.68;3.47;;;;;;;9.66;100.00;99195.85;1741241;81;21087;-62
2022/05/04 01:42:03;;;;;;;7.12;3.70;;;;;;;9.67;100.00;99202.35;1744709;81;21078;-62
2022/05/04 01:44:34;;;;;;;10.00;3.85;;;;;;;9.59;100.00;99202.95;1736130;81;22023;-61
2022/05/04 01:47:00;;;;;;;10.05;4.28;;;;;;;9.51;100.00;99200.80;1744571;82;21482;-62
2022/05/04 01:49:27;;;;;;;6.12;4.28;;;;;;;9.46;100.00;99198.09;1751084;80;21017;-61
2022/05/04 01:51:53;;;;;;;;;;;;;;;9.42;100.00;99209.27;1740846;81;20986;-61
2022/05/04 01:54:19;;;;;;;5.28;3.55;;;;;;;9.37;100.00;99209.27;1746339;80;20094;-61
2022/05/04 01:56:46;;;;;;;7.53;3.98;;;;;;;9.26;100.00;99214.46;1750940;82;21552;-62
2022/05/04 01:59:12;;;;;;;8.00;4.05;;;;;;;9.18;100.00;99214.47;1750614;80;21553;-62
2022/05/04 02:01:41;;;;;;;6.20;3.72;;;;;;;9.10;100.00;99217.77;1749802;81;20929;-62
2022/05/04 02:04:08;;;;;;;7.30;3.62;;;;;;;9.04;100.00;99214.77;1736403;81;21605;-61
2022/05/04 02:06:37;;;;;;;6.92;3.67;;;;;;;9.06;100.00;99222.12;1747458;81;20979;-61
2022/05/04 02:09:04;;;;;;;6.10;3.42;;;;;;;9.12;100.00;99218.84;1734758;80;21031;-61
2022/05/04 02:11:32;;;;;;;11.65;4.20;;;;;;;9.10;100.00;99225.92;1750059;82;21065;-62
2022/05/04 02:14:00;;;;;;;6.58;3.65;;;;;;;9.03;100.00;99234.07;1751544;80;21078;-61
2022/05/04 02:16:26;;;;;;;9.73;4.20;;;;;;;8.96;100.00;99237.07;1747989;82;20975;-61
2022/05/04 02:18:53;;;;;;;;;;;;;;;8.88;100.00;99237.07;1706675;82;21116;-62
2022/05/04 02:21:19;;;;;;;8.03;4.08;;;;;;;8.82;100.00;99228.64;1677499;85;20143;-61
2022/05/04 02:23:47;;;;;;;8.75;3.65;;;;;;;8.73;100.00;99230.82;1706680;82;21531;-61
2022/05/04 02:26:13;;;;;;;;;;;;;;;8.68;100.00;99237.63;1698827;82;21102;-61
2022/05/04 02:28:40;;;;;;;7.05;3.92;;;;;;;8.69;100.00;99235.16;1705517;82;20168;-61
2022/05/04 02:31:06;;;;;;;6.85;3.72;;;;;;;8.65;100.00;99248.99;1703699;82;21038;-62
2022/05/04 02:33:32;;;;;;;7.22;3.75;;;;;;;8.68;100.00;99243.05;1727717;80;21090;-61
2022/05/04 02:38:45;;;;;;;5.95;3.65;;;;;;;8.80;100.00;99254.43;1745997;81;20388;-60
2022/05/04 02:41:11;;;;;;;;;;;;;;;8.73;100.00;99253.89;1751331;82;21677;-61
2022/05/04 02:43:38;;;;;;;7.60;3.17;;;;;;;8.74;100.00;99263.13;1749099;80;20150;-61
2022/05/04 02:46:12;;;;;;;;;;;;;;;8.71;100.00;99263.67;1742680;82;21066;-61
2022/05/04 02:48:38;;;;;;;5.75;3.52;;;;;;;8.72;100.00;99261.21;1746268;81;20438;-61
2022/05/04 02:51:05;;;;;;;7.08;3.95;;;;;;;8.70;100.00;99259.86;1733161;81;21020;-60
2022/05/04 02:53:32;;;;;;;5.55;3.30;;;;;;;8.69;100.00;99260.94;1746640;80;21035;-61
2022/05/04 02:55:58;;;;;;;;;;;;;;;8.72;100.00;99263.92;1730999;82;21023;-61
2022/05/04 02:58:24;;;;;;;5.75;3.50;;;;;;;8.81;100.00;99265.57;1741063;81;20136;-62
2022/05/04 03:00:51;;;;;;;6.58;3.70;;;;;;;8.85;100.00;99266.12;1733071;80;21090;-61
2022/05/04 03:03:18;;;;;;;;;;;;;;;8.85;100.00;99279.69;1742617;81;21435;-61
2022/05/04 03:05:44;;;;;;;6.35;3.72;;;;;;;8.84;100.00;99275.34;1749604;81;20418;-62
2022/05/04 03:08:11;;;;;;;8.28;3.75;;;;;;;8.83;100.00;99276.41;1745895;81;20983;-62
2022/05/04 03:13:23;;;;;;;8.55;3.80;;;;;;;8.95;100.00;99274.80;1745567;82;21416;-62
2022/05/04 03:15:49;;;;;;;8.85;4.30;;;;;;;9.02;100.00;99290.27;1742369;81;21075;-61
2022/05/04 03:18:15;;;;;;;6.45;3.92;;;;;;;9.09;100.00;99286.73;1752307;81;21066;-61
2022/05/04 03:20:42;;;;;;;;;;;;;;;9.15;100.00;99287.53;1753317;80;21094;-60
2022/05/04 03:23:08;;;;;;;10.70;3.95;;;;;;;9.25;100.00;99294.30;1751054;80;20196;-61
2022/05/04 03:25:35;;;;;;;11.85;4.20;;;;;;;9.35;100.00;99295.67;1748357;81;21053;-62
2022/05/04 03:28:02;;;;;;;7.08;3.62;;;;;;;9.42;100.00;99301.64;1750617;81;21043;-62
2022/05/04 03:30:28;;;;;;;10.93;4.20;;;;;;;9.44;100.00;99298.91;1750868;80;21086;-61
2022/05/04 03:32:55;;;;;;;5.12;3.22;;;;;;;9.47;100.00;99305.14;1749559;82;21050;-62
2022/05/04 03:35:21;;;;;;;8.98;4.40;;;;;;;9.53;100.00;99316.02;1750794;80;21135;-61
2022/05/04 03:37:48;;;;;;;9.08;4.00;;;;;;;9.57;100.00;99307.02;1714398;81;21017;-61
2022/05/04 03:40:15;;;;;;;6.17;4.20;;;;;;;9.65;100.00;99320.59;1748168;80;21070;-62
2022/05/04 03:42:42;;;;;;;7.60;4.17;;;;;;;9.75;100.00;99326.00;1749563;82;21066;-62
2022/05/04 03:45:09;;;;;;;6.78;4.20;;;;;;;9.80;100.00;99331.43;1707411;83;21492;-61
2022/05/04 03:47:36;;;;;;;8.88;3.92;;;;;;;9.86;100.00;99324.34;1709457;82;21302;-62
2022/05/04 03:50:04;;;;;;;6.67;3.55;;;;;;;9.90;100.00;99328.67;1702249;82;21760;-61
2022/05/04 03:52:30;;;;;;;8.13;4.25;;;;;;;9.90;100.00;99349.89;1661557;84;21498;-61
2022/05/04 03:54:56;;;;;;;11.70;4.00;;;;;;;9.92;100.00;99347.69;1674164;84;21023;-61
2022/05/04 03:59:54;;;;;;;6.62;4.15;;;;;;;10.15;100.00;99344.94;1835432;76;23157;-60
2022/05/04 04:02:21;;;;;;;8.50;3.60;;;;;;;10.36;100.00;99349.73;1845252;76;21043;-61
2022/05/04 04:04:47;;;;;;;6.65;3.58;;;;;;;10.55;100.00;99348.56;1829733;76;21051;-61
2022/05/04 04:07:13;;;;;;;7.30;3.70;;;;;;;10.69;100.00;99346.84;1849554;77;20970;-62
2022/05/04 04:09:41;;;;;;;7.92;3.40;;;;;;;10.81;100.00;99348.66;1848769;77;21506;-61
2022/05/04 04:12:09;;;;;;;8.58;3.75;;;;;;;10.90;100.00;99356.50;1835753;77;21002;-61
2022/05/04 04:14:35;;;;;;;8.23;3.45;;;;;;;11.04;100.00;99349.32;1844874;76;20999;-61
2022/05/04 04:17:01;;;;;;;8.20;4.00;;;;;;;11.16;100.00;99355.78;1837549;77;20963;-61
2022/05/04 04:19:28;;;;;;;6.67;3.65;;;;;;;11.38;100.00;99356.11;1838898;77;21017;-62
2022/05/04 04:21:54;;;;;;;;;;;;;;;11.67;100.00;99345.21;1847787;77;21509;-61
2022/05/04 04:24:22;;;;;;;5.92;3.35;;;;;;;11.84;100.00;99340.15;1828497;77;20137;-61
2022/05/04 04:26:50;;;;;;;8.10;3.58;;;;;;;11.88;100.00;99345.30;1824112;77;21437;-61
2022/05/04 04:29:16;;;;;;;8.00;4.08;;;;;;;12.06;100.00;99345.91;1830955;77;21069;-61
2022/05/04 04:31:43;;;;;;;9.00;3.50;;;;;;;12.19;100.00;99353.37;1832587;77;20957;-60
2022/05/04 04:34:09;;;;;;;9.25;3.83;;;;;;;12.32;100.00;99347.23;1834697;77;21058;-61
2022/05/04 04:36:36;;;;;;;6.80;3.60;;;;;;;12.39;100.00;99355.06;1824112;77;21108;-61
2022/05/04 04:39:03;;;;;;;7.90;3.70;;;;;;;12.42;100.00;99353.92;1830832;76;21065;-61
2022/05/04 04:41:30;;;;;;;8.35;4.03;;;;;;;12.51;100.00;99356.80;1833674;77;21015;-61
2022/05/04 04:43:56;;;;;;;6.95;3.70;;;;;;;12.48;100.00;99364.22;1832354;77;21038;-61
2022/05/04 04:46:23;;;;;;;6.40;3.00;;;;;;;12.38;100.00;99360.25;1824937;77;21025;-61
2022/05/04 04:48:50;;;;;;;6.75;3.37;;;;;;;12.30;100.00;99367.72;1844484;76;21057;-62
2022/05/04 04:51:16;;;;;;;9.50;4.03;;;;;;;12.26;100.00;99378.41;1820334;76;21066;-61
2022/05/04 04:53:43;;;;;;;;;;;;;;;12.34;100.00;99370.13;1833457;77;21490;-62
2022/05/04 04:56:09;;;;;;;5.12;2.98;;;;;;;12.43;100.00;99371.13;1829873;76;20382;-62
2022/05/04 04:58:36;;;;;;;6.42;3.58;;;;;;;12.47;100.00;99383.05;1830048;77;21057;-61
2022/05/04 05:01:03;;;;;;;6.10;3.10;;;;;;;12.53;100.00;99370.17;1805334;77;21059;-62
2022/05/04 05:03:30;;;;;;;4.53;2.80;;;;;;;12.67;100.00;99372.44;1798448;78;21033;-61
2022/05/04 05:05:57;;;;;;;6.35;3.08;;;;;;;12.98;100.00;99377.17;1800868;77;20949;-62
2022/05/04 05:08:24;;;;;;;;;;;;;;;13.22;100.00;99378.46;1809478;78;20994;-62
2022/05/04 05:10:51;;;;;;;7.03;3.12;;;;;;;13.26;100.00;99374.03;1788447;78;20121;-63
2022/05/04 05:13:17;;;;;;;8.75;3.00;;;;;;;13.39;100.00;99374.63;1804169;77;21004;-63
2022/05/04 05:18:28;;;;;;;4.87;3.05;;;;;;;13.86;100.00;99369.98;1801266;78;20522;-63
2022/05/04 05:20:57;;;;;;;6.72;2.58;;;;;;;13.77;100.00;99373.17;1816870;78;21406;-61
2022/05/04 05:23:23;;;;;;;4.45;2.52;;;;;;;13.69;100.00;99379.33;1813644;77;21500;-61
2022/05/04 05:25:51;;;;;;;6.15;2.75;;;;;;;13.74;100.00;99386.90;1820113;78;21049;-60
2022/05/04 05:28:18;;;;;;;8.13;2.90;;;;;;;13.60;100.00;99381.14;1811428;77;21049;-62
2022/05/04 05:30:44;;;;;;;;;;;;;;;13.43;100.00;99383.86;1815817;78;21043;-61
2022/05/04 05:33:11;;;;;;;5.40;2.65;;;;;;;13.41;100.00;99387.45;1823430;77;20317;-61
2022/05/04 05:35:37;;;;;;;8.55;2.67;;;;;;;13.43;100.00;99395.34;1818485;77;21065;-61
2022/05/04 05:38:04;;;;;;;5.60;3.22;;;;;;;13.51;100.00;99387.84;1818231;78;21140;-61
2022/05/04 05:40:31;;;;;;;4.75;2.72;;;;;;;13.52;100.00;99391.39;1809187;77;21026;-61
2022/05/04 05:42:57;;;;;;;5.97;3.02;;;;;;;13.43;100.00;99398.08;1814255;78;21029;-61
2022/05/04 05:45:24;;;;;;;5.00;2.60;;;;;;;13.49;100.00;99394.72;1806080;78;21010;-61
2022/05/04 05:47:52;;;;;;;4.72;2.37;;;;;;;13.59;100.00;99395.91;1805555;77;20966;-61
2022/05/04 05:50:20;;;;;;;4.50;2.15;;;;;;;13.85;100.00;99402.58;1806149;78;21029;-61
2022/05/04 05:52:47;;;;;;;7.42;2.62;;;;;;;13.98;100.00;99402.33;1822213;78;21005;-61
2022/05/04 05:55:13;;;;;;;6.78;2.25;;;;;;;14.01;100.00;99405.27;1809474;78;21049;-62
2022/05/04 05:57:41;;;;;;;5.85;2.58;;;;;;;14.15;100.00;99410.21;1816008;77;21056;-62
2022/05/04 06:00:08;;;;;;;;;;;;;;;14.29;100.00;99407.47;1836479;76;21477;-61
2022/05/04 06:02:40;;;;;;;4.70;2.22;;;;;;;14.33;100.00;99406.57;1833217;77;20505;-62
2022/05/04 06:05:08;;;;;;;6.62;2.50;;;;;;;14.37;100.00;99410.91;1835840;76;21137;-61
2022/05/04 06:07:34;;;;;;;6.17;2.58;;;;;;;14.51;100.00;99414.46;1833088;77;21018;-62
2022/05/04 06:10:01;;;;;;;5.15;2.40;;;;;;;14.64;100.00;99417.73;1773847;79;21074;-62
2022/05/04 06:12:28;;;;;;;4.50;2.40;;;;;;;14.73;100.00;99426.06;1796269;79;21307;-64
2022/05/04 06:14:54;;;;;;;5.42;2.50;;;;;;;14.88;100.00;99411.45;1779389;79;21066;-61
2022/05/04 06:17:21;;;;;;;;;;;;;;;15.07;100.00;99420.09;1780832;79;21074;-60
2022/05/04 06:19:48;;;;;;;3.12;2.10;;;;;;;15.13;100.00;99421.04;1799773;78;20559;-62
2022/05/04 06:22:14;;;;;;;3.45;2.15;;;;;;;15.26;100.00;99422.95;1778754;79;21009;-61
2022/05/04 06:24:41;;;;;;;;;;;;;;;15.53;100.00;99413.00;1763950;79;21524;-62
2022/05/04 06:27:07;;;;;;;4.90;2.40;;;;;;;15.67;100.00;99420.05;1767066;79;20493;-61
2022/05/04 06:35:07;;;;;;;5.10;2.22;;;;;;;15.98;100.00;99415.16;1763646;80;21677;-61
2022/05/04 06:37:33;;;;;;;5.72;2.20;;;;;;;16.11;100.00;99413.70;1757999;80;21062;-61
2022/05/04 06:40:01;;;;;;;4.50;2.00;;;;;;;16.14;100.00;99422.67;1776588;80;21105;-62
2022/05/04 06:42:28;;;;;;;5.00;1.60;;;;;;;16.27;100.00;99416.81;1773592;80;21032;-62
2022/05/04 06:44:54;;;;;;;8.55;1.80;;;;;;;16.35;100.00;99420.17;1768114;80;21079;-60
2022/05/04 06:47:21;;;;;;;3.25;1.75;;;;;;;16.41;100.00;99412.84;1799469;79;21045;-61
2022/05/04 06:49:47;;;;;;;7.87;2.27;;;;;;;16.36;100.00;99433.61;1753684;80;21074;-63
2022/05/04 06:52:14;;;;;;;4.25;2.08;;;;;;;16.41;100.00;99434.00;1806433;79;21003;-64
2022/05/04 06:54:42;;;;;;;6.40;2.05;;;;;;;16.48;100.00;99422.55;1776212;80;21562;-64
2022/05/04 06:57:08;;;;;;;3.87;1.60;;;;;;;16.53;100.00;99419.67;1779245;79;21542;-64
2022/05/04 06:59:36;;;;;;;5.78;1.75;;;;;;;16.54;100.00;99429.55;1758040;80;21552;-64
2022/05/04 07:02:03;;;;;;;;;;;;;;;16.73;100.00;99434.22;1758069;80;21038;-64
2022/05/04 07:04:29;;;;;;;4.90;1.98;;;;;;;16.61;100.00;99425.80;1725417;82;20966;-63
2022/05/04 07:06:58;;;;;;;4.62;1.80;;;;;;;16.41;100.00;99434.82;1745090;80;21031;-65
2022/05/04 07:09:25;;;;;;;5.30;2.08;;;;;;;16.34;100.00;99438.59;1755881;81;21076;-63
2022/05/04 07:11:53;;;;;;;4.67;1.75;;;;;;;16.38;100.00;99446.45;1760235;81;21494;-63
2022/05/04 07:14:20;;;;;;;4.95;1.77;;;;;;;16.56;100.00;99441.86;1726648;81;21120;-62
2022/05/04 07:16:47;;;;;;;4.15;1.80;;;;;;;16.61;100.00;99442.28;1758464;81;21059;-63
2022/05/04 07:19:15;;;;;;;8.23;1.92;;;;;;;16.45;100.00;99454.23;1758170;81;21130;-63
2022/05/04 07:21:43;;;;;;;3.27;1.60;;;;;;;16.49;100.00;99451.66;1754583;81;21435;-63
2022/05/04 07:24:11;;;;;;;3.90;1.30;;;;;;;16.54;100.00;99454.27;1748235;81;21070;-64
2022/05/04 07:26:40;;;;;;;5.67;1.55;;;;;;;16.59;100.00;99455.52;1752450;81;21323;-66
2022/05/04 07:29:09;;;;;;;5.22;1.80;;;;;;;16.73;99.39;99450.71;1754001;81;21051;-62
2022/05/04 07:31:39;;;;;;;2.67;1.60;;;;;;;16.89;100.00;99455.47;1741013;81;20990;-64
2022/05/04 07:34:07;;;;;;;3.55;1.60;;;;;;;16.89;98.72;99473.34;1752917;81;21565;-64
2022/05/04 07:36:35;;;;;;;5.08;1.57;;;;;;;16.80;95.19;99457.37;1745598;81;21387;-64
2022/05/04 07:39:02;;;;;;;2.90;1.40;;;;;;;16.78;99.70;99461.58;1718598;81;21070;-65
2022/05/04 07:44:16;;;;;;;3.05;1.30;;;;;;;17.03;85.80;99462.77;1743529;81;21086;-65
2022/05/04 07:46:45;;;;;;;3.58;1.10;;;;;;;17.04;77.17;99465.77;1739178;81;21006;-64
2022/05/04 07:49:13;;;;;;;3.55;1.30;;;;;;;16.98;81.57;99468.41;1748230;81;21039;-62
2022/05/04 07:51:42;;;;;;;3.90;1.20;;;;;;;16.98;83.24;99471.16;1744362;81;21040;-63
2022/05/04 07:54:11;;;;;;;4.67;1.20;;;;;;;17.13;82.33;99466.02;1744987;81;21575;-63
2022/05/04 07:56:41;;;;;;;3.85;1.55;;;;;;;17.20;79.21;99474.61;1733327;81;20963;-63
2022/05/04 07:59:10;;;;;;;12.78;1.92;;;;;;;17.19;79.70;99476.29;1766274;79;21584;-63
2022/05/04 08:04:25;;;;;;;4.62;1.37;;;;;;;17.20;79.37;99480.67;1792672;79;21093;-64
2022/05/04 08:06:54;;;;;;;4.12;1.20;;;;;;;17.11;80.62;99476.52;1740091;81;21017;-65
2022/05/04 08:09:22;;;;;;;4.30;1.17;;;;;;;17.08;75.87;99479.91;1779540;79;21124;-63
2022/05/04 08:11:52;;;;;;;2.70;0.95;;;;;;;17.05;78.25;99483.30;1777606;79;21641;-65
2022/05/04 08:14:20;;;;;;;2.25;1.10;;;;;;;17.12;65.96;99481.45;1778343;79;21118;-62
2022/05/04 08:16:46;;;;;;;3.02;1.47;;;;;;;17.17;66.73;99479.38;1786786;78;21607;-63
2022/05/04 08:19:13;;;;;;;4.75;1.70;;;;;;;17.24;66.11;99474.77;1788435;79;21050;-62
2022/05/04 08:21:40;;;;;;;3.30;1.57;;;;;;;17.30;67.14;99486.67;1778940;79;21163;-63
2022/05/04 08:24:08;;;;;;;5.60;2.00;;;;;;;17.25;67.02;99480.52;1778715;80;21517;-63
2022/05/04 08:26:35;;;;;;;3.70;1.50;;;;;;;17.27;66.52;99485.94;1752683;82;21034;-64
2022/05/04 08:29:02;;;;;;;2.45;1.10;;;;;;;17.27;66.73;99477.69;1788005;79;21576;-64
2022/05/04 08:31:29;;;;;;;4.47;1.37;;;;;;;17.37;67.83;99482.06;1770106;79;21058;-63
2022/05/04 08:33:56;;;;;;;5.12;1.07;;;;;;;17.53;74.00;99472.21;1755005;80;21109;-62
2022/05/04 08:36:22;;;;;;;3.65;1.00;;;;;;;17.89;65.60;99471.86;1782521;79;21077;-62
2022/05/04 08:38:50;;;;;;;3.35;1.40;;;;;;;17.82;59.97;99483.94;1779655;79;21015;-63
2022/05/04 08:41:17;;;;;;;5.58;1.42;;;;;;;17.68;63.00;99486.05;1781252;80;21573;-64
2022/05/04 08:43:43;;;;;;;4.20;1.30;;;;;;;17.73;61.33;99494.16;1782068;80;21050;-62
2022/05/04 08:46:13;;;;;;;4.90;2.87;;;;;;;17.72;59.88;99489.22;1796783;79;21353;-62
2022/05/04 08:48:40;;;;;;;7.55;3.55;;;;;;;17.72;60.26;99491.97;1778807;79;21485;-62
2022/05/04 08:51:07;;;;;;;11.65;5.53;;;;;;;17.74;59.97;99497.98;1759632;80;21007;-61
2022/05/04 08:53:34;;;;;;;3.35;1.00;;;;;;;17.63;66.15;99498.63;1767513;79;21459;-63
2022/05/04 08:56:01;;;;;;;7.03;0.80;;;;;;;17.72;59.67;99487.84;1779563;79;21492;-61
2022/05/04 08:58:27;;;;;;;3.92;0.88;;;;;;;17.82;56.65;99499.89;1761491;80;20984;-63
2022/05/04 09:00:54;;;;;;;4.67;1.07;;;;;;;17.81;56.54;99494.17;1772847;80;21010;-61
2022/05/04 09:03:21;;;;;;;4.65;1.50;;;;;;;17.84;55.93;99498.20;1763168;81;21089;-62
2022/05/04 09:05:51;;;;;;;4.55;1.30;;;;;;;17.84;56.29;99499.02;1768899;80;21014;-63
2022/05/04 09:08:18;;;;;;;5.35;1.90;;;;;;;17.89;56.78;99490.58;1740241;81;20978;-60
2022/05/04 09:10:45;;;;;;;3.20;1.50;;;;;;;18.08;56.28;99497.12;1765654;81;21003;-60
2022/05/04 09:13:12;;;;;;;3.62;1.42;;;;;;;18.19;50.39;99495.64;1761588;80;20987;-63
2022/05/04 09:15:40;;;;;;;3.02;1.40;;;;;;;17.99;51.96;99499.09;1760293;81;21061;-63
2022/05/04 09:18:13;;;;;;;6.78;1.82;;;;;;;17.90;52.78;99488.64;1763616;81;21009;-60
2022/05/04 09:20:57;;;;;;;7.25;3.10;;;;;;;17.99;53.31;99494.15;1769983;80;21015;-63
2022/05/04 09:23:30;;;;;;;5.05;1.40;;;;;;;17.89;52.14;99503.53;1769442;80;21446;-61
2022/05/04 09:26:05;;;;;;;3.35;1.40;;;;;;;17.68;51.78;99506.14;1762430;79;21013;-61
2022/05/04 09:28:32;;;;;;;3.83;1.32;;;;;;;17.52;49.60;99505.55;1771350;79;21045;-61
2022/05/04 09:31:04;;;;;;;2.67;1.20;;;;;;;17.33;49.99;99497.03;1769161;80;20998;-61
2022/05/04 09:33:34;;;;;;;4.65;1.90;;;;;;;17.26;52.73;99491.75;1740197;81;20947;-60
2022/05/04 09:36:03;;;;;;;3.87;2.08;;;;;;;17.20;53.58;99499.92;1764171;81;21481;-62
2022/05/04 09:46:50;;;;;;;5.72;2.00;;;;;;;17.09;59.03;99482.91;1764114;80;21608;-60
2022/05/04 09:49:23;;;;;;;4.40;1.60;;;;;;;17.26;54.27;99490.37;1749704;82;21050;-62
2022/05/04 09:51:52;;;;;;;5.75;2.42;;;;;;;17.33;53.95;99488.77;1783887;80;21025;-62
2022/05/04 09:54:26;;;;;;;4.75;1.70;;;;;;;17.39;58.95;99492.19;1785267;79;21018;-61
2022/05/04 09:56:54;;;;;;;5.00;1.72;;;;;;;17.39;54.54;99501.23;1780592;80;20963;-61
2022/05/04 09:59:23;;;;;;;5.45;2.67;;;;;;;17.14;52.06;99494.34;1784220;79;20991;-61
2022/05/04 10:01:54;;;;;;;3.52;1.90;;;;;;;16.79;52.78;99499.72;1803254;79;20961;-61
2022/05/04 10:04:20;;;;;;;3.83;1.25;;;;;;;16.54;53.04;99494.93;1784288;79;21506;-60
2022/05/04 10:06:50;;;;;;;4.35;1.20;;;;;;;16.42;51.92;99496.07;1806717;79;21588;-61
2022/05/04 10:09:18;;;;;;;3.17;1.00;;;;;;;16.28;52.98;99491.23;1807575;79;21023;-61
2022/05/04 10:11:46;;;;;;;4.55;1.10;;;;;;;16.20;53.22;99498.30;1800818;79;21518;-61
2022/05/04 10:14:15;;;;;;;4.30;2.05;;;;;;;16.15;52.50;99494.88;1785882;79;21031;-60
2022/05/04 10:17:01;;;;;;;3.75;1.90;;;;;;;16.17;52.13;99495.36;1776966;79;21018;-61
2022/05/04 10:20:09;;;;;;;5.95;1.37;;;;;;;16.13;52.58;99495.19;1723398;82;21115;-60
2022/05/04 10:22:59;;;;;;;3.08;0.85;;;;;;;16.11;52.91;99499.38;1810696;79;21006;-60
2022/05/04 10:25:26;;;;;;;3.72;0.90;;;;;;;16.11;50.36;99500.19;1787208;79;21038;-61
2022/05/04 10:28:04;;;;;;;3.75;0.72;;;;;;;16.02;48.95;99494.38;1779237;80;20963;-62
2022/05/04 10:30:31;;;;;;;6.05;2.22;;;;;;;16.04;50.10;99495.70;1768482;81;21052;-61
2022/05/04 10:33:01;;;;;;;10.18;5.35;;;;;;;16.12;50.27;99504.53;1787339;79;21425;-61
2022/05/04 10:35:41;;;;;;;9.05;5.28;;;;;;;16.16;51.09;99496.48;1799048;79;21092;-64
2022/05/04 10:38:16;;;;;;;8.65;3.22;;;;;;;16.25;53.13;99495.98;1781375;80;20951;-61
2022/05/04 10:40:51;;;;;;;5.62;2.12;;;;;;;16.38;53.23;99506.88;1795876;79;21093;-60
2022/05/04 10:43:47;;;;;;;7.12;1.35;;;;;;;16.40;53.86;99499.71;1798247;79;21007;-60
2022/05/04 10:46:17;;;;;;;3.70;1.40;;;;;;;16.19;51.65;99487.05;1807716;79;21038;-60
2022/05/04 10:48:52;;;;;;;3.17;1.00;;;;;;;16.10;52.61;99512.84;1779603;79;21478;-61
2022/05/04 10:51:21;;;;;;;4.12;0.85;;;;;;;16.06;53.77;99500.86;1783254;79;20998;-61
2022/05/04 10:53:51;;;;;;;2.70;1.30;;;;;;;16.03;50.38;99502.87;1788005;79;20955;-62
2022/05/04 10:56:26;;;;;;;4.80;1.47;;;;;;;15.96;50.19;99500.56;1784950;79;21021;-62
2022/05/04 10:58:57;;;;;;;3.67;1.00;;;;;;;15.91;49.79;99502.87;1815338;79;21522;-61
2022/05/04 11:01:34;;;;;;;2.72;0.72;;;;;;;15.88;47.63;99508.17;1761372;80;20998;-61
2022/05/04 11:04:16;;;;;;;;;;;;;;;15.89;45.49;99510.62;1772323;81;21058;-62
2022/05/04 11:06:54;;;;;;;5.55;1.65;;;;;;;15.89;44.52;99502.94;1788778;79;20094;-62
2022/05/04 11:09:26;;;;;;;5.15;1.00;;;;;;;15.98;44.65;99497.52;1786347;79;21023;-63
2022/05/04 11:11:56;;;;;;;1.80;0.90;;;;;;;16.23;45.12;99494.91;1790711;79;21081;-63
2022/05/04 11:14:23;;;;;;;4.50;1.00;;;;;;;16.52;46.99;99497.17;1781064;79;21019;-62
2022/05/04 11:16:51;;;;;;;4.12;0.88;;;;;;;16.83;45.15;99501.27;1782511;79;20987;-62
2022/05/04 11:19:18;;;;;;;2.98;1.10;;;;;;;16.93;42.91;99499.63;1782201;79;21041;-63
2022/05/04 11:21:46;;;;;;;4.40;1.35;;;;;;;16.76;42.96;99498.17;1783183;79;21030;-62
2022/05/04 11:24:14;;;;;;;4.60;1.50;;;;;;;16.55;42.98;99503.95;1781087;79;21042;-64
2022/05/04 11:26:47;;;;;;;3.05;1.20;;;;;;;16.43;43.25;99505.95;1783508;79;21057;-64
2022/05/04 11:29:25;;;;;;;3.20;1.15;;;;;;;16.23;42.39;99500.97;1778678;79;21096;-63
2022/05/04 11:31:59;;;;;;;3.95;0.80;;;;;;;16.13;42.09;99497.93;1776721;79;21480;-63
2022/05/04 11:34:28;;;;;;;3.95;1.27;;;;;;;16.15;44.73;99495.70;1785812;79;21026;-64
2022/05/04 11:36:56;;;;;;;3.62;1.10;;;;;;;16.29;45.83;99493.67;1779755;79;21029;-64
2022/05/04 11:39:25;;;;;;;3.50;1.10;;;;;;;16.42;45.98;99500.19;1773342;79;21006;-63
2022/05/04 11:41:54;;;;;;;3.17;0.90;;;;;;;16.48;44.37;99495.36;1783167;79;20990;-63
2022/05/04 11:44:21;;;;;;;5.65;1.00;;;;;;;16.38;44.96;99490.95;1781427;79;20994;-63
2022/05/04 11:46:53;;;;;;;4.45;0.80;;;;;;;16.39;45.08;99484.34;1776860;79;21588;-63
2022/05/04 11:49:22;;;;;;;3.33;0.70;;;;;;;16.58;48.48;99481.40;1779608;79;21146;-64
2022/05/04 11:51:49;;;;;;;3.08;1.15;;;;;;;16.82;45.89;99481.80;1797750;79;20991;-64
2022/05/04 11:54:16;;;;;;;3.25;0.80;;;;;;;16.89;44.52;99493.95;1794307;79;20979;-63
2022/05/04 11:56:42;;;;;;;3.70;0.90;;;;;;;16.91;43.65;99487.56;1776389;80;20954;-63
2022/05/04 11:59:09;;;;;;;3.37;1.00;;;;;;;16.91;44.71;99488.94;1772552;80;21486;-63
2022/05/04 12:01:37;;;;;;;4.15;1.00;;;;;;;16.91;43.87;99490.87;1761578;80;20987;-63
2022/05/04 12:04:04;;;;;;;3.72;1.10;;;;;;;16.78;42.16;99495.94;1756139;80;21015;-63
2022/05/04 12:06:32;;;;;;;2.83;0.88;;;;;;;16.60;41.97;99492.31;1782688;79;21024;-61
2022/05/04 12:08:59;;;;;;;3.35;0.65;;;;;;;16.57;42.52;99496.25;1784759;79;21050;-62
2022/05/04 12:11:26;;;;;;;3.95;0.80;;;;;;;16.67;44.59;99492.66;1760704;79;21041;-62